Slickville, Pennsylvania
Current Conditions -  °F | °C
As of 10:50 AM on Wednesday 28 Jan 2015 (Local Time) from KLBE Reporting Station
Light Snow Light Snow  
Wind Chill:   Ceiling: 1600
Heat Index: 16°   Visibility: 6mi
Dew Point: 10°   Wind: 12mph
Humidity: 79%   Direction: 250°WSW
Pressure: 30.36"   Gusts: NA
Location:  40.46°N, 79.52°W
Report Text: KLBE 281550Z 25010KT 6SM -SN BKN016 M09/M12 A3036
Loading
Personal Weather Stations






























Interactive Weather Map New forecast layout! Learn more

10-Day Weather Forecast

Advertisements
Track Severe Weather on mobile